ENML/MOL METAR and TAF weather

Enter ICAO airport designator
Station Type Date Time Source
ENML METAR 2020/01/20 12:50 UTC NOAA

ENML 201250Z 25028G38KT 9999 VCSH FEW020 BKN030 12/09 Q1018


Station Type Date Time Source
ENML Decoded METAR 2020/01/20 12:50 UTC NOAA

Molde / Aro, Norway (ENML) 62-45N 007-16E 3M
Jan 20, 2020 - 07:50 AM EST / 2020.01.20 1250 UTC
Wind: from the WSW (250 degrees) at 32 MPH (28 KT) gusting to 44 MPH (38 KT):0
Visibility: greater than 7 mile(s):0
Sky conditions: mostly cloudy
Weather: showers in the vicinity
Temperature: 53 F (12 C)
Dew Point: 48 F (9 C)
Relative Humidity: 81%
Pressure (altimeter): 30.06 in. Hg (1018 hPa)
ob: ENML 201250Z 25028G38KT 9999 VCSH FEW020 BKN030 12/09 Q1018
cycle: 13

Station Type Date Time Source
ENML TAF UTC NOAA

Error!

Example: see airport list